Time;durP1;ratioP1;P1;durP2;ratioP2;P2;SDS_P1;SDS_P2;PMS_P1;PMS_P2;Temp;Humidity;BMP_temperature;BMP_pressure;BME280_temperature;BME280_humidity;BME280_pressure;Samples;Min_cycle;Max_cycle;Signal;HPM_P1;HPM_P2
2022/06/17 00:02:06;;;;;;;4.60;4.00;;;18.50;79.80;;;;;;5046648;28;20577;-73
2022/06/17 00:04:33;;;;;;;4.07;3.88;;;18.50;79.90;;;;;;5043849;28;20188;-73
2022/06/17 00:07:03;;;;;;;4.22;3.92;;;18.50;79.30;;;;;;5041253;28;20268;-73
2022/06/17 00:09:31;;;;;;;4.03;3.80;;;18.40;79.50;;;;;;5045228;28;20190;-73
2022/06/17 00:11:57;;;;;;;3.95;3.70;;;18.40;79.30;;;;;;5044729;28;20211;-72
2022/06/17 00:14:31;;;;;;;4.38;4.10;;;18.40;79.70;;;;;;5045166;28;20273;-73
2022/06/17 00:16:57;;;;;;;3.70;3.50;;;18.40;79.50;;;;;;5042752;28;20180;-73
2022/06/17 00:19:23;;;;;;;3.28;3.17;;;18.30;80.10;;;;;;5042823;28;20772;-72
2022/06/17 00:21:52;;;;;;;4.15;3.95;;;18.30;79.60;;;;;;5044938;28;20326;-72
2022/06/17 00:24:22;;;;;;;3.92;3.72;;;18.30;79.20;;;;;;5044669;28;20179;-73
2022/06/17 00:26:48;;;;;;;3.58;3.47;;;18.30;79.30;;;;;;5041480;28;20282;-73
2022/06/17 00:29:17;;;;;;;3.97;3.67;;;18.30;79.10;;;;;;5046478;28;20188;-73
2022/06/17 00:31:43;;;;;;;3.97;3.67;;;18.30;78.80;;;;;;5045686;28;20209;-73
2022/06/17 00:34:09;;;;;;;2.90;2.80;;;18.30;79.10;;;;;;5045331;28;20192;-74
2022/06/17 00:36:35;;;;;;;4.07;3.25;;;18.30;79.50;;;;;;5043638;28;20207;-74
2022/06/17 00:39:02;;;;;;;3.42;3.30;;;18.30;79.50;;;;;;5045639;28;20239;-73
2022/06/17 00:41:34;;;;;;;3.05;2.95;;;18.30;79.70;;;;;;5045840;28;20211;-73
2022/06/17 00:44:14;;;;;;;3.13;3.03;;;18.30;80.00;;;;;;5042577;28;20568;-73
2022/06/17 00:46:53;;;;;;;2.72;2.63;;;18.30;80.00;;;;;;5041382;28;20194;-73
2022/06/17 00:49:41;;;;;;;3.20;3.03;;;18.20;79.70;;;;;;5045863;28;21053;-73
2022/06/17 00:52:22;;;;;;;6.25;3.88;;;18.20;80.10;;;;;;5041324;28;20198;-73
2022/06/17 00:55:05;;;;;;;3.22;3.13;;;18.20;80.40;;;;;;5045068;28;20196;-73
2022/06/17 00:57:38;;;;;;;3.80;3.60;;;18.20;80.20;;;;;;5041117;28;20176;-73
2022/06/17 01:00:11;;;;;;;4.00;3.80;;;18.10;80.40;;;;;;5045744;28;20766;-72
2022/06/17 01:02:43;;;;;;;3.88;3.78;;;18.10;79.90;;;;;;5044093;28;20282;-72
2022/06/17 01:05:10;;;;;;;3.90;3.70;;;18.10;80.00;;;;;;5045169;28;20183;-74
2022/06/17 01:07:47;;;;;;;3.95;3.50;;;18.10;80.90;;;;;;5043423;28;20286;-72
2022/06/17 01:10:15;;;;;;;3.72;3.63;;;18.10;80.10;;;;;;5042876;28;20176;-73
2022/06/17 01:12:57;;;;;;;3.45;3.35;;;18.00;80.50;;;;;;5044121;28;20179;-73
2022/06/17 01:15:27;;;;;;;3.63;3.53;;;18.00;80.10;;;;;;5042956;28;21067;-73
2022/06/17 01:17:53;;;;;;;3.53;3.30;;;18.00;80.50;;;;;;5043821;28;20574;-73
2022/06/17 01:20:21;;;;;;;4.53;4.28;;;18.00;81.10;;;;;;5041167;28;20304;-72
2022/06/17 01:22:58;;;;;;;4.40;4.00;;;17.90;80.80;;;;;;5043542;28;20653;-72
2022/06/17 01:25:28;;;;;;;4.30;4.07;;;17.90;81.70;;;;;;5041925;28;20191;-72
2022/06/17 01:28:00;;;;;;;3.35;3.10;;;17.90;81.60;;;;;;5044032;28;20798;-73
2022/06/17 01:30:50;;;;;;;4.05;3.70;;;17.90;81.00;;;;;;5037363;28;20176;-72
2022/06/17 01:33:24;;;;;;;3.97;3.78;;;17.80;81.50;;;;;;5044313;28;20195;-73
2022/06/17 01:36:01;;;;;;;3.42;3.25;;;17.80;81.90;;;;;;5037843;28;20954;-73
2022/06/17 01:38:29;;;;;;;3.60;3.40;;;17.70;82.30;;;;;;5037762;28;20187;-73
2022/06/17 01:40:57;;;;;;;6.45;4.20;;;17.70;81.70;;;;;;5042468;28;20244;-73
2022/06/17 01:43:39;;;;;;;5.90;5.40;;;17.70;82.00;;;;;;5041893;28;20287;-73
2022/06/17 01:46:10;;;;;;;4.95;4.55;;;17.70;82.90;;;;;;5041000;28;20311;-73
2022/06/17 01:48:39;;;;;;;5.10;4.70;;;17.60;82.50;;;;;;5040477;28;20270;-72
2022/06/17 01:51:07;;;;;;;5.40;5.00;;;17.60;83.10;;;;;;5042487;28;20284;-73
2022/06/17 01:53:37;;;;;;;6.25;5.75;;;17.50;82.80;;;;;;5043668;28;20214;-73
2022/06/17 01:56:13;;;;;;;4.55;4.30;;;17.40;83.20;;;;;;5041477;28;20710;-72
2022/06/17 01:58:46;;;;;;;6.55;5.55;;;17.30;82.60;;;;;;5042455;28;20632;-72
2022/06/17 02:01:13;;;;;;;6.25;5.75;;;17.30;83.70;;;;;;5043233;28;20688;-72
2022/06/17 02:03:59;;;;;;;5.97;5.47;;;17.30;83.50;;;;;;5041369;28;20179;-72
2022/06/17 02:06:42;;;;;;;6.03;5.57;;;17.30;83.10;;;;;;5043674;28;20205;-73
2022/06/17 02:09:07;;;;;;;7.07;6.10;;;17.30;83.20;;;;;;5042704;28;20695;-74
2022/06/17 02:11:33;;;;;;;6.93;6.32;;;17.20;83.50;;;;;;5043177;28;20184;-74
2022/06/17 02:14:06;;;;;;;5.95;5.35;;;17.20;82.60;;;;;;5042695;28;20179;-73
2022/06/17 02:16:35;;;;;;;6.63;5.93;;;17.10;82.80;;;;;;5042391;28;20202;-73
2022/06/17 02:19:02;;;;;;;6.07;5.57;;;17.10;82.70;;;;;;5041956;28;20942;-73
2022/06/17 02:21:37;;;;;;;6.65;5.88;;;17.10;83.10;;;;;;5043276;28;20670;-73
2022/06/17 02:24:04;;;;;;;6.40;5.80;;;17.10;84.30;;;;;;5043555;28;21008;-74
2022/06/17 02:26:33;;;;;;;5.82;5.43;;;17.00;83.50;;;;;;5042043;28;20206;-73
2022/06/17 02:29:05;;;;;;;5.93;5.50;;;17.00;83.00;;;;;;5042689;28;20219;-73
2022/06/17 02:31:33;;;;;;;5.50;5.00;;;17.00;83.50;;;;;;5040603;28;20218;-73
2022/06/17 02:33:59;;;;;;;7.45;5.50;;;17.00;85.50;;;;;;5043639;28;20179;-73
2022/06/17 02:36:34;;;;;;;6.28;5.18;;;17.00;85.50;;;;;;5042597;28;20846;-73
2022/06/17 02:39:00;;;;;;;6.38;5.45;;;17.00;85.40;;;;;;5041351;28;20256;-73
2022/06/17 02:41:27;;;;;;;6.05;5.50;;;17.00;84.90;;;;;;5042238;28;20179;-73
2022/06/17 02:44:04;;;;;;;6.45;5.85;;;16.90;85.50;;;;;;5041397;28;20210;-73
2022/06/17 02:46:42;;;;;;;5.82;5.30;;;16.90;84.60;;;;;;5041807;28;20183;-73
2022/06/17 02:49:18;;;;;;;5.57;5.20;;;16.90;84.40;;;;;;5038622;28;20187;-73
2022/06/17 02:51:44;;;;;;;5.88;5.38;;;16.80;84.20;;;;;;5042029;28;20230;-73
2022/06/17 02:54:16;;;;;;;5.97;5.47;;;16.80;84.40;;;;;;5040410;28;20194;-73
2022/06/17 02:56:47;;;;;;;6.38;5.78;;;16.80;84.30;;;;;;5039627;28;20184;-73
2022/06/17 02:59:20;;;;;;;5.30;4.93;;;16.80;84.90;;;;;;5041773;28;20654;-73
2022/06/17 03:01:56;;;;;;;6.53;5.88;;;16.80;85.00;;;;;;5041767;28;20184;-73
2022/06/17 03:04:26;;;;;;;7.20;6.25;;;16.80;85.50;;;;;;5043393;28;20183;-73
2022/06/17 03:06:52;;;;;;;6.47;5.80;;;16.80;85.50;;;;;;5033336;28;20678;-73
2022/06/17 03:09:30;;;;;;;9.98;5.65;;;16.80;85.60;;;;;;5041741;28;20241;-73
2022/06/17 03:12:10;;;;;;;9.27;6.15;;;16.80;85.00;;;;;;5038777;28;20188;-74
2022/06/17 03:14:41;;;;;;;6.20;5.60;;;16.80;84.60;;;;;;5036789;28;20192;-74
2022/06/17 03:17:10;;;;;;;5.95;5.50;;;16.80;85.40;;;;;;5040521;28;20237;-75
2022/06/17 03:19:37;;;;;;;6.90;6.25;;;16.80;86.70;;;;;;5040765;28;20238;-73
2022/06/17 03:22:11;;;;;;;7.03;6.25;;;16.80;86.60;;;;;;5039818;28;20196;-73
2022/06/17 03:25:00;;;;;;;6.43;5.78;;;16.80;86.50;;;;;;5039945;28;20187;-72
2022/06/17 03:27:43;;;;;;;8.05;6.45;;;16.80;86.10;;;;;;5041874;28;20795;-73
2022/06/17 03:30:12;;;;;;;9.90;6.57;;;16.80;86.40;;;;;;5039973;28;20215;-73
2022/06/17 03:32:44;;;;;;;8.02;6.40;;;16.80;86.60;;;;;;5040963;28;20889;-73
2022/06/17 03:35:25;;;;;;;6.60;6.00;;;16.80;86.10;;;;;;5039348;28;20583;-72
2022/06/17 03:38:01;;;;;;;9.77;6.53;;;16.80;85.60;;;;;;5035704;28;20183;-73
2022/06/17 03:40:41;;;;;;;6.57;5.85;;;16.80;86.30;;;;;;5039012;28;20217;-73
2022/06/17 03:43:12;;;;;;;6.45;5.93;;;16.80;86.10;;;;;;5036800;28;20287;-73
2022/06/17 03:45:48;;;;;;;6.65;6.03;;;16.90;86.70;;;;;;5036220;28;20187;-73
2022/06/17 03:48:28;;;;;;;6.45;5.95;;;16.90;86.20;;;;;;5037102;28;20180;-73
2022/06/17 03:50:55;;;;;;;12.48;6.50;;;16.90;86.70;;;;;;5041401;28;20665;-72
2022/06/17 03:53:26;;;;;;;7.85;6.10;;;16.90;86.80;;;;;;5043058;28;20176;-73
2022/06/17 03:55:54;;;;;;;9.27;6.75;;;16.90;86.70;;;;;;5039748;28;20195;-73
2022/06/17 03:58:21;;;;;;;8.18;6.45;;;16.90;86.30;;;;;;5042526;28;20188;-73
2022/06/17 04:01:10;;;;;;;13.50;6.95;;;16.90;85.90;;;;;;5043848;28;20215;-72
2022/06/17 04:03:40;;;;;;;9.60;5.57;;;16.90;85.90;;;;;;5041209;28;20195;-73
2022/06/17 04:06:16;;;;;;;7.07;6.25;;;16.90;86.20;;;;;;5044757;28;20895;-74
2022/06/17 04:08:51;;;;;;;7.57;6.88;;;16.90;85.70;;;;;;5045796;28;20206;-73
2022/06/17 04:11:18;;;;;;;9.27;6.28;;;17.00;86.20;;;;;;5044133;28;20337;-73
2022/06/17 04:13:43;;;;;;;8.70;7.15;;;17.00;86.80;;;;;;5039833;28;20183;-73
2022/06/17 04:16:25;;;;;;;7.68;6.90;;;17.10;87.00;;;;;;5043011;28;20179;-73
2022/06/17 04:18:51;;;;;;;9.68;6.50;;;17.10;86.50;;;;;;5045003;28;20765;-73
2022/06/17 04:21:17;;;;;;;7.22;6.47;;;17.10;86.90;;;;;;5042975;28;20184;-73
2022/06/17 04:23:47;;;;;;;8.70;6.00;;;17.20;86.80;;;;;;5043973;28;20633;-73
2022/06/17 04:26:25;;;;;;;8.73;6.95;;;17.20;86.40;;;;;;5043281;28;20207;-73
2022/06/17 04:28:58;;;;;;;8.93;6.20;;;17.20;86.40;;;;;;5045382;28;20191;-73
2022/06/17 04:31:26;;;;;;;7.53;6.70;;;17.20;86.50;;;;;;5044006;28;20180;-73
2022/06/17 04:34:05;;;;;;;6.30;5.72;;;17.20;86.70;;;;;;5041762;28;20192;-73
2022/06/17 04:36:39;;;;;;;6.20;5.15;;;17.30;86.20;;;;;;5043757;28;20282;-73
2022/06/17 04:39:23;;;;;;;5.82;5.28;;;17.30;86.20;;;;;;5043131;28;20759;-74
2022/06/17 04:41:53;;;;;;;6.40;5.82;;;17.30;85.50;;;;;;5041586;28;20245;-74
2022/06/17 04:44:19;;;;;;;4.93;4.55;;;17.30;86.30;;;;;;5044018;28;20573;-73
2022/06/17 04:46:50;;;;;;;5.00;4.70;;;17.40;86.20;;;;;;5043491;28;20181;-73
2022/06/17 04:49:22;;;;;;;6.88;5.13;;;17.40;85.80;;;;;;5042632;28;20183;-74
2022/06/17 04:51:48;;;;;;;8.15;5.10;;;17.50;85.70;;;;;;5042523;28;20184;-74
2022/06/17 04:54:15;;;;;;;5.40;4.93;;;17.50;85.60;;;;;;5042377;28;20718;-74
2022/06/17 04:56:45;;;;;;;5.45;4.97;;;17.50;85.30;;;;;;5041920;28;20694;-74
2022/06/17 04:59:23;;;;;;;5.20;4.28;;;17.60;85.60;;;;;;5041224;28;20208;-75
2022/06/17 05:01:50;;;;;;;5.18;4.63;;;17.60;85.30;;;;;;5042402;28;20183;-75
2022/06/17 05:04:17;;;;;;;5.68;4.45;;;17.70;85.70;;;;;;5039715;28;20195;-75
2022/06/17 05:06:42;;;;;;;4.25;3.90;;;17.70;85.30;;;;;;5043009;28;20213;-75
2022/06/17 05:09:25;;;;;;;4.72;4.43;;;17.80;85.60;;;;;;5041343;28;20192;-75
2022/06/17 05:12:00;;;;;;;5.35;5.03;;;17.80;85.00;;;;;;5040189;28;20199;-76
2022/06/17 05:14:41;;;;;;;9.45;4.82;;;17.90;85.20;;;;;;5039577;28;20187;-75
2022/06/17 05:17:07;;;;;;;6.03;5.35;;;18.00;84.80;;;;;;5044252;28;20182;-75
2022/06/17 05:19:33;;;;;;;4.65;4.15;;;18.00;85.10;;;;;;5044278;28;20195;-76
2022/06/17 05:22:00;;;;;;;4.93;3.85;;;18.00;85.00;;;;;;5042954;28;20262;-75
2022/06/17 05:24:28;;;;;;;4.45;3.92;;;18.00;84.90;;;;;;5041216;28;20183;-75
2022/06/17 05:26:53;;;;;;;4.80;4.50;;;18.10;84.70;;;;;;5045107;28;20233;-73
2022/06/17 05:29:19;;;;;;;4.60;4.30;;;18.10;85.10;;;;;;5044933;28;20183;-74
2022/06/17 05:31:49;;;;;;;4.38;3.83;;;18.20;84.80;;;;;;5041535;28;20176;-74
2022/06/17 05:34:16;;;;;;;4.47;4.18;;;18.20;84.50;;;;;;5043271;28;20191;-78
2022/06/17 05:36:42;;;;;;;4.85;4.45;;;18.30;84.40;;;;;;5041047;28;20187;-77
2022/06/17 05:39:07;;;;;;;4.68;4.28;;;18.30;84.10;;;;;;5040090;28;20221;-76
2022/06/17 05:41:33;;;;;;;4.22;3.92;;;18.40;83.80;;;;;;5039623;28;20255;-77
2022/06/17 05:43:59;;;;;;;4.18;3.88;;;18.40;83.50;;;;;;5040777;28;20188;-77
2022/06/17 05:46:24;;;;;;;3.53;3.30;;;18.40;83.80;;;;;;5043145;28;20171;-78
2022/06/17 05:48:50;;;;;;;25.30;4.40;;;18.50;83.60;;;;;;5041584;28;20809;-76
2022/06/17 05:51:16;;;;;;;3.17;3.00;;;18.50;83.60;;;;;;5044960;28;20258;-76
2022/06/17 05:53:41;;;;;;;2.85;2.70;;;18.60;83.50;;;;;;5043055;28;20175;-76
2022/06/17 05:56:07;;;;;;;2.28;2.28;;;18.70;83.10;;;;;;5042501;28;20894;-75
2022/06/17 05:58:33;;;;;;;2.80;2.65;;;18.70;82.90;;;;;;5040461;28;20572;-77
2022/06/17 06:00:58;;;;;;;2.00;2.00;;;18.80;82.90;;;;;;5040663;28;20222;-75
2022/06/17 06:03:26;;;;;;;2.60;2.30;;;18.80;82.80;;;;;;5040169;28;20553;-75
2022/06/17 06:05:53;;;;;;;4.15;2.90;;;18.90;82.60;;;;;;5041066;28;20248;-76
2022/06/17 06:08:19;;;;;;;3.00;2.83;;;19.00;82.50;;;;;;5040565;28;20524;-76
2022/06/17 06:10:45;;;;;;;2.40;2.30;;;19.00;82.50;;;;;;5041002;28;20936;-75
2022/06/17 06:13:20;;;;;;;2.67;2.50;;;19.10;82.40;;;;;;5042008;28;20191;-74
2022/06/17 06:15:47;;;;;;;3.40;2.33;;;19.20;82.00;;;;;;5042122;28;21000;-75
2022/06/17 06:18:17;;;;;;;2.58;2.45;;;19.20;82.00;;;;;;5042165;28;20179;-74
2022/06/17 06:20:42;;;;;;;1.98;1.98;;;19.30;82.10;;;;;;5040564;28;20608;-75
2022/06/17 06:23:08;;;;;;;6.50;3.05;;;19.30;81.90;;;;;;5040890;28;20179;-74
2022/06/17 06:25:35;;;;;;;3.30;2.55;;;19.40;81.60;;;;;;5040153;28;20195;-75
2022/06/17 06:28:12;;;;;;;7.75;3.22;;;19.40;81.70;;;;;;5040460;28;20423;-76
2022/06/17 06:30:38;;;;;;;2.53;2.22;;;19.50;81.30;;;;;;5040879;28;20179;-75
2022/06/17 06:33:04;;;;;;;2.47;2.38;;;19.60;81.60;;;;;;5041246;28;20185;-76
2022/06/17 06:35:33;;;;;;;3.35;3.05;;;19.70;81.60;;;;;;5041635;28;20179;-75
2022/06/17 06:37:59;;;;;;;2.65;2.55;;;19.80;81.40;;;;;;5042147;28;20461;-75
2022/06/17 06:40:26;;;;;;;2.67;2.20;;;19.80;81.20;;;;;;5041892;28;20229;-75
2022/06/17 06:42:52;;;;;;;2.35;2.25;;;19.90;81.20;;;;;;5042084;28;20692;-75
2022/06/17 06:45:24;;;;;;;2.15;2.05;;;20.00;80.90;;;;;;5042049;28;20179;-76
2022/06/17 06:47:51;;;;;;;3.00;2.80;;;20.10;80.50;;;;;;5041487;28;20637;-75
2022/06/17 06:50:20;;;;;;;2.33;2.33;;;20.10;80.20;;;;;;5042239;28;20574;-76
2022/06/17 06:52:46;;;;;;;2.80;2.70;;;20.20;80.20;;;;;;5042059;28;20180;-75
2022/06/17 06:55:13;;;;;;;2.33;2.22;;;20.30;80.60;;;;;;5041810;28;20495;-75
2022/06/17 06:57:49;;;;;;;2.75;2.65;;;20.40;80.30;;;;;;5041534;28;20288;-75
2022/06/17 07:00:21;;;;;;;3.63;2.47;;;20.50;80.00;;;;;;5041562;28;20211;-75
2022/06/17 07:02:46;;;;;;;3.47;3.17;;;20.60;79.90;;;;;;5041415;28;20206;-75
2022/06/17 07:05:12;;;;;;;3.22;3.10;;;20.60;79.90;;;;;;5035241;28;20179;-75
2022/06/17 07:07:39;;;;;;;3.15;3.05;;;20.70;79.30;;;;;;5041288;28;20652;-75
2022/06/17 07:10:06;;;;;;;3.20;3.08;;;20.80;78.40;;;;;;5041424;28;20187;-75
2022/06/17 07:12:32;;;;;;;2.78;2.67;;;20.90;78.30;;;;;;5041045;28;20617;-75
2022/06/17 07:14:58;;;;;;;3.47;3.33;;;20.90;78.50;;;;;;5041477;28;20237;-75
2022/06/17 07:17:23;;;;;;;3.13;3.03;;;20.90;78.90;;;;;;5041450;28;20259;-75
2022/06/17 07:19:49;;;;;;;2.65;2.55;;;21.00;78.40;;;;;;5041328;28;20598;-75
2022/06/17 07:22:15;;;;;;;2.78;2.67;;;21.10;78.60;;;;;;5040900;28;20187;-75
2022/06/17 07:24:40;;;;;;;2.90;2.67;;;21.20;78.30;;;;;;5041497;28;20198;-74
2022/06/17 07:27:06;;;;;;;3.10;2.90;;;21.30;77.70;;;;;;5042669;28;20234;-75
2022/06/17 07:29:32;;;;;;;3.88;3.65;;;21.40;78.00;;;;;;5045071;28;20192;-75
2022/06/17 07:31:59;;;;;;;8.40;3.15;;;21.40;77.20;;;;;;5044882;28;20370;-75
2022/06/17 07:34:26;;;;;;;3.38;3.17;;;21.40;77.10;;;;;;5044495;28;20183;-76
2022/06/17 07:39:54;;;;;;;3.00;2.83;;;21.50;77.90;;;;;;5044923;28;20250;-75
2022/06/17 07:42:37;;;;;;;3.17;2.85;;;21.60;77.70;;;;;;5043552;28;20606;-75
2022/06/17 07:45:08;;;;;;;3.22;3.03;;;21.60;77.50;;;;;;5045402;28;20180;-75
2022/06/17 07:47:34;;;;;;;3.20;3.00;;;21.70;76.30;;;;;;5044893;28;20223;-75
2022/06/17 07:50:00;;;;;;;3.17;3.08;;;21.80;76.90;;;;;;5044841;28;20278;-75
2022/06/17 07:52:25;;;;;;;2.55;2.50;;;21.80;77.30;;;;;;5045294;28;20188;-74
2022/06/17 07:54:51;;;;;;;4.00;3.10;;;21.90;77.40;;;;;;5045155;28;20192;-75
2022/06/17 07:57:17;;;;;;;3.63;3.35;;;21.90;77.30;;;;;;5045016;28;20233;-75
2022/06/17 07:59:43;;;;;;;3.35;3.08;;;22.00;76.50;;;;;;5043367;28;20215;-75
2022/06/17 08:02:08;;;;;;;2.88;2.78;;;22.00;76.20;;;;;;5045251;28;20191;-74
2022/06/17 08:04:36;;;;;;;3.55;3.33;;;22.20;76.40;;;;;;5044750;28;20188;-76
2022/06/17 08:07:03;;;;;;;3.40;3.08;;;22.20;76.40;;;;;;5044767;28;20190;-74
2022/06/17 08:09:28;;;;;;;3.20;3.10;;;22.20;76.60;;;;;;5044876;28;20270;-75
2022/06/17 08:11:54;;;;;;;3.05;2.95;;;22.20;76.70;;;;;;5045337;28;20306;-75
2022/06/17 08:14:20;;;;;;;2.85;2.75;;;22.30;76.80;;;;;;5044878;28;20299;-75
2022/06/17 08:16:46;;;;;;;3.72;3.50;;;;;;;;;;5045137;28;20171;-74
2022/06/17 08:19:13;;;;;;;3.85;3.55;;;22.40;76.50;;;;;;5044786;28;20727;-75
2022/06/17 08:21:38;;;;;;;3.55;3.35;;;22.50;76.40;;;;;;5044752;28;20187;-75
2022/06/17 08:24:04;;;;;;;3.22;3.10;;;22.50;76.30;;;;;;5044922;28;20184;-75
2022/06/17 08:26:30;;;;;;;3.78;3.47;;;22.60;76.00;;;;;;5037757;28;20203;-75
2022/06/17 08:28:55;;;;;;;3.67;3.33;;;22.60;76.10;;;;;;5044075;28;20183;-75
2022/06/17 08:31:21;;;;;;;3.03;2.92;;;22.70;75.80;;;;;;5044266;28;20275;-75
2022/06/17 08:33:47;;;;;;;3.35;3.15;;;22.70;76.20;;;;;;5044353;28;20187;-75
2022/06/17 08:36:19;;;;;;;3.83;3.15;;;22.80;76.50;;;;;;5045262;28;20187;-75
2022/06/17 08:38:51;;;;;;;4.28;4.07;;;22.90;75.70;;;;;;5042896;28;20195;-75
2022/06/17 08:41:33;;;;;;;3.95;3.65;;;22.90;73.80;;;;;;5044463;28;20198;-74
2022/06/17 08:44:07;;;;;;;5.13;3.55;;;23.00;75.60;;;;;;5044328;28;20591;-76
2022/06/17 08:46:51;;;;;;;4.85;3.75;;;23.00;74.60;;;;;;5044021;28;20217;-74
2022/06/17 08:49:34;;;;;;;4.25;3.92;;;23.10;74.60;;;;;;5043425;28;20175;-74
2022/06/17 08:52:36;;;;;;;3.85;3.33;;;23.10;75.60;;;;;;5043478;28;20187;-75
2022/06/17 08:55:24;;;;;;;4.03;3.83;;;23.20;74.40;;;;;;5043392;28;20230;-76
2022/06/17 08:58:13;;;;;;;3.50;3.40;;;23.30;74.20;;;;;;5044166;28;20561;-75
2022/06/17 09:00:50;;;;;;;6.00;3.28;;;23.40;74.90;;;;;;5043822;28;20757;-74
2022/06/17 09:03:26;;;;;;;3.55;3.33;;;23.40;74.90;;;;;;5042557;28;20270;-75
2022/06/17 09:06:15;;;;;;;3.70;3.55;;;23.50;75.20;;;;;;5042389;28;20279;-75
2022/06/17 09:09:07;;;;;;;3.83;3.63;;;23.60;74.80;;;;;;5043822;28;20175;-75
2022/06/17 09:11:49;;;;;;;3.90;3.67;;;23.70;74.20;;;;;;4981340;28;20194;-75
2022/06/17 09:14:21;;;;;;;4.25;4.05;;;23.80;74.60;;;;;;4981476;28;20197;-75
2022/06/17 09:17:04;;;;;;;4.85;4.45;;;23.90;75.20;;;;;;4981345;28;20955;-75
2022/06/17 09:19:32;;;;;;;3.42;3.33;;;24.00;73.60;;;;;;4981623;28;20292;-75
2022/06/17 09:22:08;;;;;;;5.75;4.45;;;24.10;73.00;;;;;;4981179;28;20181;-75
2022/06/17 09:24:39;;;;;;;4.63;3.60;;;24.20;72.00;;;;;;4980959;28;20187;-75
2022/06/17 09:27:09;;;;;;;3.88;3.72;;;24.20;72.80;;;;;;4981290;28;20185;-75
2022/06/17 09:29:51;;;;;;;4.95;3.80;;;24.40;73.20;;;;;;4976295;28;20581;-76
2022/06/17 09:32:30;;;;;;;3.92;3.72;;;24.50;72.80;;;;;;4979678;28;20186;-75
2022/06/17 09:35:04;;;;;;;4.50;3.45;;;24.60;72.30;;;;;;4981472;28;20246;-75
2022/06/17 09:37:57;;;;;;;10.80;3.88;;;24.70;72.60;;;;;;4980867;28;20177;-75
2022/06/17 09:40:25;;;;;;;3.22;3.13;;;24.80;72.50;;;;;;4981024;28;20696;-75
2022/06/17 09:43:16;;;;;;;3.60;3.40;;;24.90;72.10;;;;;;4981097;28;20205;-76
2022/06/17 09:45:56;;;;;;;4.00;3.60;;;25.10;71.00;;;;;;4980804;28;20197;-75
2022/06/17 09:48:40;;;;;;;3.83;3.63;;;25.20;70.40;;;;;;4996279;28;20648;-75
2022/06/17 09:51:20;;;;;;;4.40;4.20;;;25.40;69.10;;;;;;5040214;28;20667;-74
2022/06/17 09:54:02;;;;;;;4.30;3.80;;;25.30;66.80;;;;;;5036545;28;20198;-75
2022/06/17 09:56:38;;;;;;;3.97;3.88;;;25.30;68.30;;;;;;5037184;28;20401;-75
2022/06/17 09:59:34;;;;;;;3.80;3.60;;;25.40;67.10;;;;;;5036666;28;20310;-74
2022/06/17 10:02:20;;;;;;;4.05;3.95;;;25.50;67.20;;;;;;5040026;28;20191;-75
2022/06/17 10:04:45;;;;;;;4.13;3.80;;;25.60;67.30;;;;;;5037966;28;20787;-74
2022/06/17 10:07:35;;;;;;;3.92;3.63;;;25.60;68.70;;;;;;5036717;28;20477;-75
2022/06/17 10:10:19;;;;;;;3.25;3.15;;;25.90;67.90;;;;;;4977856;28;20509;-74
2022/06/17 10:13:31;;;;;;;3.00;2.90;;;26.00;63.10;;;;;;4973742;28;20332;-75
2022/06/17 10:19:01;;;;;;;2.67;2.67;;;26.20;64.90;;;;;;4938775;29;20964;-75
2022/06/17 10:21:52;;;;;;;3.40;3.05;;;26.40;61.10;;;;;;4935962;29;20579;-74
2022/06/17 10:24:23;;;;;;;3.10;3.00;;;26.60;60.60;;;;;;4938520;28;20270;-73
2022/06/17 10:26:52;;;;;;;2.72;2.65;;;26.80;61.60;;;;;;4936295;29;20199;-74
2022/06/17 10:29:17;;;;;;;3.33;3.22;;;27.10;61.00;;;;;;4939045;28;20815;-75
2022/06/17 10:31:46;;;;;;;3.45;3.25;;;27.30;59.70;;;;;;4936362;29;20658;-75
2022/06/17 10:34:20;;;;;;;2.35;2.33;;;27.60;59.20;;;;;;4938769;28;20712;-75
2022/06/17 10:36:47;;;;;;;3.60;3.40;;;27.80;58.20;;;;;;4937642;28;20198;-75
2022/06/17 10:39:17;;;;;;;3.38;3.28;;;28.00;58.40;;;;;;4937098;29;20226;-73
2022/06/17 10:41:44;;;;;;;3.40;3.25;;;28.20;59.40;;;;;;4938689;28;20359;-75
2022/06/17 10:44:14;;;;;;;3.30;3.03;;;28.40;58.60;;;;;;4936862;29;20192;-75
2022/06/17 10:46:44;;;;;;;3.42;3.03;;;28.70;58.30;;;;;;4949477;28;20720;-75
2022/06/17 10:49:13;;;;;;;4.97;3.38;;;29.10;56.90;;;;;;4996570;28;20189;-76
2022/06/17 10:51:39;;;;;;;3.33;3.08;;;29.60;56.90;;;;;;5010260;28;20629;-74
2022/06/17 10:54:22;;;;;;;3.00;2.90;;;30.10;56.00;;;;;;5037617;28;20573;-75
2022/06/17 10:57:06;;;;;;;2.85;2.75;;;30.60;54.70;;;;;;5040608;28;20694;-75
2022/06/17 10:59:41;;;;;;;2.78;2.42;;;31.10;54.30;;;;;;5036001;28;20863;-75
2022/06/17 11:02:28;;;;;;;2.33;2.33;;;31.90;52.10;;;;;;5039159;28;20195;-76
2022/06/17 11:05:03;;;;;;;3.20;2.95;;;32.40;49.20;;;;;;5042397;28;20179;-74
2022/06/17 11:07:47;;;;;;;2.42;2.35;;;32.80;50.10;;;;;;5043150;28;20635;-75
2022/06/17 11:10:13;;;;;;;2.67;2.63;;;32.90;50.80;;;;;;5040565;28;20213;-75
2022/06/17 11:12:42;;;;;;;3.65;3.50;;;32.90;52.10;;;;;;5043823;28;20371;-75
2022/06/17 11:15:31;;;;;;;3.97;3.33;;;32.90;51.70;;;;;;5043959;28;20280;-75
2022/06/17 11:18:19;;;;;;;3.78;3.58;;;33.10;52.80;;;;;;5043615;28;20706;-75
2022/06/17 11:21:20;;;;;;;4.30;4.07;;;33.30;53.20;;;;;;5044158;28;20211;-74
2022/06/17 11:23:51;;;;;;;4.07;3.97;;;33.40;51.80;;;;;;5041592;28;20575;-74
2022/06/17 11:26:25;;;;;;;4.50;4.30;;;33.30;52.80;;;;;;5043633;28;20259;-75
2022/06/17 11:29:03;;;;;;;4.65;4.25;;;33.20;53.90;;;;;;5042459;28;20299;-75
2022/06/17 11:31:30;;;;;;;5.18;4.90;;;33.10;54.60;;;;;;5041402;28;20215;-75
2022/06/17 11:34:01;;;;;;;5.40;5.07;;;33.00;54.80;;;;;;5043864;28;20258;-75
2022/06/17 11:36:34;;;;;;;5.10;4.78;;;32.80;54.30;;;;;;5043566;28;20194;-76
2022/06/17 11:39:31;;;;;;;4.63;4.25;;;32.50;55.70;;;;;;5042210;28;20187;-75
2022/06/17 11:41:57;;;;;;;4.47;4.35;;;32.30;54.70;;;;;;5043279;28;20211;-74
2022/06/17 11:44:24;;;;;;;5.20;5.00;;;32.00;56.20;;;;;;5043474;28;20179;-74
2022/06/17 11:46:57;;;;;;;5.30;5.00;;;31.90;56.80;;;;;;5042810;28;20583;-75
2022/06/17 11:49:24;;;;;;;4.75;4.55;;;31.70;56.40;;;;;;5042046;28;20183;-75
2022/06/17 11:52:00;;;;;;;4.55;4.35;;;31.40;57.00;;;;;;5036374;28;20179;-74
2022/06/17 11:54:32;;;;;;;5.10;4.78;;;31.20;58.70;;;;;;5041870;28;20267;-76
2022/06/17 11:56:59;;;;;;;4.82;4.63;;;31.00;56.90;;;;;;5043579;28;20675;-75
2022/06/17 11:59:32;;;;;;;4.50;4.20;;;30.70;57.60;;;;;;5043642;28;20246;-75
2022/06/17 12:01:57;;;;;;;4.20;3.90;;;30.50;58.70;;;;;;5043546;28;20183;-75
2022/06/17 12:04:39;;;;;;;4.10;3.90;;;30.40;58.60;;;;;;5043166;28;20245;-75
2022/06/17 12:07:25;;;;;;;4.53;3.63;;;30.30;58.10;;;;;;5043619;28;20234;-75
2022/06/17 12:09:59;;;;;;;3.85;3.75;;;30.30;57.90;;;;;;5045109;28;20594;-74
2022/06/17 12:12:28;;;;;;;3.90;3.65;;;30.60;57.70;;;;;;5044854;28;20687;-74
2022/06/17 12:15:16;;;;;;;3.22;3.13;;;31.10;57.80;;;;;;5044587;28;20234;-74
2022/06/17 12:17:43;;;;;;;3.08;2.97;;;31.80;55.90;;;;;;5044684;28;20184;-75
2022/06/17 12:20:18;;;;;;;4.63;3.35;;;32.60;54.70;;;;;;5044812;28;20203;-75
2022/06/17 12:22:52;;;;;;;3.58;3.38;;;33.20;54.00;;;;;;5044271;28;20695;-75
2022/06/17 12:25:49;;;;;;;2.83;2.72;;;33.70;53.00;;;;;;5044645;28;20210;-74
2022/06/17 12:28:24;;;;;;;2.95;2.85;;;34.20;51.80;;;;;;5045175;28;20705;-76
2022/06/17 12:31:02;;;;;;;2.28;2.15;;;34.80;52.00;;;;;;5044812;28;20269;-77
2022/06/17 12:33:44;;;;;;;2.75;2.65;;;35.20;50.30;;;;;;5044690;28;20187;-76
2022/06/17 12:36:17;;;;;;;3.20;2.67;;;35.70;49.30;;;;;;5042861;28;20721;-75
2022/06/17 12:39:15;;;;;;;2.33;2.25;;;36.10;47.50;;;;;;5044472;28;20187;-75
2022/06/17 12:42:14;;;;;;;3.08;2.97;;;36.50;47.70;;;;;;4982048;28;20220;-75
2022/06/17 12:44:46;;;;;;;2.30;2.30;;;37.00;45.90;;;;;;4981558;28;20272;-73
2022/06/17 12:47:27;;;;;;;2.55;2.30;;;37.50;47.60;;;;;;4981629;28;20197;-74
2022/06/17 12:53:16;;;;;;;2.40;2.30;;;38.40;45.90;;;;;;4982028;28;20632;-75
2022/06/17 12:56:17;;;;;;;2.50;2.40;;;39.00;44.50;;;;;;4982102;28;20295;-75
2022/06/17 12:59:23;;;;;;;2.35;2.03;;;39.40;44.60;;;;;;4984114;28;20197;-75
2022/06/17 13:01:56;;;;;;;2.55;2.33;;;40.00;42.40;;;;;;4982127;28;20228;-75
2022/06/17 13:05:00;;;;;;;2.40;2.28;;;40.00;41.50;;;;;;4983197;28;20191;-75
2022/06/17 13:07:45;;;;;;;2.75;2.65;;;39.60;42.70;;;;;;4975839;28;20184;-75
2022/06/17 13:10:43;;;;;;;2.42;2.20;;;39.60;43.80;;;;;;4981003;28;20337;-75
2022/06/17 13:13:14;;;;;;;3.10;2.22;;;39.90;44.00;;;;;;4981250;28;20283;-75
2022/06/17 13:15:55;;;;;;;2.72;2.67;;;40.00;43.50;;;;;;4981005;28;20647;-76
2022/06/17 13:18:32;;;;;;;3.38;2.80;;;39.80;43.30;;;;;;5005566;28;20711;-74
2022/06/17 13:21:04;;;;;;;2.50;2.50;;;39.90;43.50;;;;;;5043782;28;20232;-74
2022/06/17 13:23:43;;;;;;;2.03;2.03;;;40.10;43.40;;;;;;5043365;28;20175;-75
2022/06/17 13:26:15;;;;;;;2.08;1.98;;;40.20;45.90;;;;;;5043392;28;20800;-74
2022/06/17 13:29:00;;;;;;;2.28;2.08;;;40.30;46.10;;;;;;5043039;28;20179;-76